sensor_id;sensor_type;location;lat;lon;timestamp;temperature;humidity
51175;DHT22;37240;50.104;20.010;2023-01-25T00:04:44;4.30;99.90
51175;DHT22;37240;50.104;20.010;2023-01-25T00:09:44;4.40;99.90
51175;DHT22;37240;50.104;20.010;2023-01-25T00:14:45;4.40;99.90
51175;DHT22;37240;50.104;20.010;2023-01-25T00:19:45;4.50;99.90
51175;DHT22;37240;50.104;20.010;2023-01-25T00:24:46;4.50;99.90
51175;DHT22;37240;50.104;20.010;2023-01-25T00:29:47;4.50;99.90
51175;DHT22;37240;50.104;20.010;2023-01-25T00:34:49;4.40;99.90
51175;DHT22;37240;50.104;20.010;2023-01-25T00:39:50;4.50;99.90
51175;DHT22;37240;50.104;20.010;2023-01-25T00:44:51;4.50;99.90
51175;DHT22;37240;50.104;20.010;2023-01-25T00:49:52;4.50;99.90
51175;DHT22;37240;50.104;20.010;2023-01-25T00:54:52;4.60;99.90
51175;DHT22;37240;50.104;20.010;2023-01-25T00:59:53;4.60;99.90
51175;DHT22;37240;50.104;20.010;2023-01-25T01:04:53;4.60;99.90
51175;DHT22;37240;50.104;20.010;2023-01-25T01:09:54;4.50;99.90
51175;DHT22;37240;50.104;20.010;2023-01-25T01:14:55;4.60;99.90
51175;DHT22;37240;50.104;20.010;2023-01-25T01:19:56;4.60;99.90
51175;DHT22;37240;50.104;20.010;2023-01-25T01:24:56;4.60;99.90
51175;DHT22;37240;50.104;20.010;2023-01-25T01:29:57;4.60;99.90
51175;DHT22;37240;50.104;20.010;2023-01-25T01:34:57;4.70;99.90
51175;DHT22;37240;50.104;20.010;2023-01-25T01:39:58;4.70;99.90
51175;DHT22;37240;50.104;20.010;2023-01-25T01:44:58;4.80;99.90
51175;DHT22;37240;50.104;20.010;2023-01-25T01:50:04;4.60;99.90
51175;DHT22;37240;50.104;20.010;2023-01-25T01:55:17;4.60;99.90
51175;DHT22;37240;50.104;20.010;2023-01-25T02:00:26;4.70;99.90
51175;DHT22;37240;50.104;20.010;2023-01-25T02:05:34;4.70;99.90
51175;DHT22;37240;50.104;20.010;2023-01-25T02:10:37;4.70;99.90
51175;DHT22;37240;50.104;20.010;2023-01-25T02:15:52;4.70;99.90
51175;DHT22;37240;50.104;20.010;2023-01-25T02:20:56;4.60;99.90
51175;DHT22;37240;50.104;20.010;2023-01-25T02:26:00;4.60;99.90
51175;DHT22;37240;50.104;20.010;2023-01-25T02:31:02;4.60;99.90
51175;DHT22;37240;50.104;20.010;2023-01-25T02:46:23;4.60;99.90
51175;DHT22;37240;50.104;20.010;2023-01-25T02:51:26;4.70;99.90
51175;DHT22;37240;50.104;20.010;2023-01-25T02:56:27;4.70;99.90
51175;DHT22;37240;50.104;20.010;2023-01-25T03:01:28;4.70;99.90
51175;DHT22;37240;50.104;20.010;2023-01-25T03:06:28;4.70;99.90
51175;DHT22;37240;50.104;20.010;2023-01-25T03:11:29;4.70;99.90
51175;DHT22;37240;50.104;20.010;2023-01-25T03:16:30;4.60;99.90
51175;DHT22;37240;50.104;20.010;2023-01-25T03:21:31;4.70;99.90
51175;DHT22;37240;50.104;20.010;2023-01-25T03:26:31;4.70;99.90
51175;DHT22;37240;50.104;20.010;2023-01-25T03:31:32;4.70;99.90
51175;DHT22;37240;50.104;20.010;2023-01-25T03:36:32;4.70;99.90
51175;DHT22;37240;50.104;20.010;2023-01-25T03:41:33;4.70;99.90
51175;DHT22;37240;50.104;20.010;2023-01-25T03:46:33;4.70;99.90
51175;DHT22;37240;50.104;20.010;2023-01-25T03:51:34;4.70;99.90
51175;DHT22;37240;50.104;20.010;2023-01-25T03:56:36;4.80;99.90
51175;DHT22;37240;50.104;20.010;2023-01-25T04:01:37;4.80;99.90
51175;DHT22;37240;50.104;20.010;2023-01-25T04:06:38;4.80;99.90
51175;DHT22;37240;50.104;20.010;2023-01-25T04:11:39;4.80;99.90
51175;DHT22;37240;50.104;20.010;2023-01-25T04:16:39;4.80;99.90
51175;DHT22;37240;50.104;20.010;2023-01-25T04:21:40;4.80;99.90
51175;DHT22;37240;50.104;20.010;2023-01-25T04:26:40;4.90;99.90
51175;DHT22;37240;50.104;20.010;2023-01-25T04:31:41;4.90;99.90
51175;DHT22;37240;50.104;20.010;2023-01-25T04:36:41;4.90;99.90
51175;DHT22;37240;50.104;20.010;2023-01-25T04:41:42;4.90;99.90
51175;DHT22;37240;50.104;20.010;2023-01-25T04:46:42;4.90;99.90
51175;DHT22;37240;50.104;20.010;2023-01-25T04:51:43;4.90;99.90
51175;DHT22;37240;50.104;20.010;2023-01-25T04:56:43;4.90;99.90
51175;DHT22;37240;50.104;20.010;2023-01-25T05:01:44;4.90;99.90
51175;DHT22;37240;50.104;20.010;2023-01-25T05:06:44;5.00;99.90
51175;DHT22;37240;50.104;20.010;2023-01-25T05:11:45;4.90;99.90
51175;DHT22;37240;50.104;20.010;2023-01-25T05:16:45;4.90;99.90
51175;DHT22;37240;50.104;20.010;2023-01-25T05:21:46;5.00;99.90
51175;DHT22;37240;50.104;20.010;2023-01-25T05:26:46;5.00;99.90
51175;DHT22;37240;50.104;20.010;2023-01-25T05:31:47;5.00;99.90
51175;DHT22;37240;50.104;20.010;2023-01-25T05:36:48;5.00;99.90
51175;DHT22;37240;50.104;20.010;2023-01-25T05:41:48;5.00;99.90
51175;DHT22;37240;50.104;20.010;2023-01-25T05:46:49;5.00;99.90
51175;DHT22;37240;50.104;20.010;2023-01-25T05:51:49;5.00;99.90
51175;DHT22;37240;50.104;20.010;2023-01-25T05:56:50;5.00;99.90
51175;DHT22;37240;50.104;20.010;2023-01-25T06:01:51;4.90;99.90
51175;DHT22;37240;50.104;20.010;2023-01-25T06:06:52;5.00;99.90
51175;DHT22;37240;50.104;20.010;2023-01-25T06:11:52;5.00;99.90
51175;DHT22;37240;50.104;20.010;2023-01-25T06:16:53;5.00;99.90
51175;DHT22;37240;50.104;20.010;2023-01-25T06:21:53;5.00;99.90
51175;DHT22;37240;50.104;20.010;2023-01-25T06:26:54;5.00;99.90
51175;DHT22;37240;50.104;20.010;2023-01-25T06:31:54;5.00;99.90
51175;DHT22;37240;50.104;20.010;2023-01-25T06:36:55;5.00;99.90
51175;DHT22;37240;50.104;20.010;2023-01-25T06:41:55;5.10;99.90
51175;DHT22;37240;50.104;20.010;2023-01-25T06:46:56;5.10;99.90
51175;DHT22;37240;50.104;20.010;2023-01-25T06:51:57;5.00;99.90
51175;DHT22;37240;50.104;20.010;2023-01-25T06:56:57;5.00;99.90
51175;DHT22;37240;50.104;20.010;2023-01-25T07:01:58;5.00;99.90
51175;DHT22;37240;50.104;20.010;2023-01-25T07:06:58;5.00;99.90
51175;DHT22;37240;50.104;20.010;2023-01-25T07:11:59;5.10;99.90
51175;DHT22;37240;50.104;20.010;2023-01-25T07:16:59;5.10;99.90
51175;DHT22;37240;50.104;20.010;2023-01-25T07:22:00;5.10;99.90
51175;DHT22;37240;50.104;20.010;2023-01-25T07:27:01;5.10;99.90
51175;DHT22;37240;50.104;20.010;2023-01-25T07:32:01;5.10;99.90
51175;DHT22;37240;50.104;20.010;2023-01-25T07:37:02;5.10;99.90
51175;DHT22;37240;50.104;20.010;2023-01-25T07:42:02;5.10;99.90
51175;DHT22;37240;50.104;20.010;2023-01-25T07:47:03;5.10;99.90
51175;DHT22;37240;50.104;20.010;2023-01-25T07:52:03;5.10;99.90
51175;DHT22;37240;50.104;20.010;2023-01-25T07:57:04;5.10;99.90
51175;DHT22;37240;50.104;20.010;2023-01-25T08:02:06;5.10;99.90
51175;DHT22;37240;50.104;20.010;2023-01-25T08:07:07;5.20;99.90
51175;DHT22;37240;50.104;20.010;2023-01-25T08:12:08;5.20;99.90
51175;DHT22;37240;50.104;20.010;2023-01-25T08:17:08;5.20;99.90
51175;DHT22;37240;50.104;20.010;2023-01-25T08:22:09;5.20;99.90
51175;DHT22;37240;50.104;20.010;2023-01-25T08:27:09;5.30;99.90
51175;DHT22;37240;50.104;20.010;2023-01-25T08:32:10;5.30;99.90
51175;DHT22;37240;50.104;20.010;2023-01-25T08:37:11;5.40;99.90
51175;DHT22;37240;50.104;20.010;2023-01-25T08:42:11;5.50;99.90
51175;DHT22;37240;50.104;20.010;2023-01-25T08:47:12;5.50;99.90
51175;DHT22;37240;50.104;20.010;2023-01-25T08:52:12;5.60;99.90
51175;DHT22;37240;50.104;20.010;2023-01-25T08:57:13;5.60;99.90
51175;DHT22;37240;50.104;20.010;2023-01-25T09:02:13;5.80;99.90
51175;DHT22;37240;50.104;20.010;2023-01-25T09:07:14;5.80;99.90
51175;DHT22;37240;50.104;20.010;2023-01-25T09:12:14;5.90;99.90
51175;DHT22;37240;50.104;20.010;2023-01-25T09:17:15;5.90;99.90
51175;DHT22;37240;50.104;20.010;2023-01-25T09:22:15;5.90;99.90
51175;DHT22;37240;50.104;20.010;2023-01-25T09:27:16;6.10;99.90
51175;DHT22;37240;50.104;20.010;2023-01-25T09:32:17;6.30;99.90
51175;DHT22;37240;50.104;20.010;2023-01-25T09:37:17;6.40;99.90
51175;DHT22;37240;50.104;20.010;2023-01-25T09:47:47;6.40;99.90
51175;DHT22;37240;50.104;20.010;2023-01-25T09:58:18;6.40;99.90
51175;DHT22;37240;50.104;20.010;2023-01-25T10:03:22;6.50;99.90
51175;DHT22;37240;50.104;20.010;2023-01-25T10:13:47;6.70;99.90
51175;DHT22;37240;50.104;20.010;2023-01-25T10:19:09;6.80;99.90
51175;DHT22;37240;50.104;20.010;2023-01-25T10:29:21;6.70;99.90
51175;DHT22;37240;50.104;20.010;2023-01-25T10:34:32;6.70;99.90
51175;DHT22;37240;50.104;20.010;2023-01-25T10:39:38;6.70;99.90
51175;DHT22;37240;50.104;20.010;2023-01-25T10:44:41;6.60;99.90
51175;DHT22;37240;50.104;20.010;2023-01-25T10:49:51;6.70;99.90
51175;DHT22;37240;50.104;20.010;2023-01-25T10:55:21;6.40;99.90
51175;DHT22;37240;50.104;20.010;2023-01-25T11:00:29;6.40;99.90
51175;DHT22;37240;50.104;20.010;2023-01-25T11:05:32;6.30;99.90
51175;DHT22;37240;50.104;20.010;2023-01-25T11:10:34;6.60;99.90
51175;DHT22;37240;50.104;20.010;2023-01-25T11:15:35;6.50;99.90
51175;DHT22;37240;50.104;20.010;2023-01-25T11:20:36;6.50;99.90
51175;DHT22;37240;50.104;20.010;2023-01-25T11:25:36;6.60;99.90
51175;DHT22;37240;50.104;20.010;2023-01-25T11:30:37;6.70;99.90
51175;DHT22;37240;50.104;20.010;2023-01-25T11:41:22;6.60;99.90
51175;DHT22;37240;50.104;20.010;2023-01-25T12:08:58;6.50;99.90
51175;DHT22;37240;50.104;20.010;2023-01-25T12:24:49;6.70;99.90
51175;DHT22;37240;50.104;20.010;2023-01-25T12:29:53;6.60;99.90
51175;DHT22;37240;50.104;20.010;2023-01-25T12:40:31;6.40;99.90
51175;DHT22;37240;50.104;20.010;2023-01-25T12:45:37;6.40;99.90
51175;DHT22;37240;50.104;20.010;2023-01-25T12:50:48;6.20;99.20
51175;DHT22;37240;50.104;20.010;2023-01-25T12:55:51;6.30;99.10
51175;DHT22;37240;50.104;20.010;2023-01-25T13:01:15;6.20;98.00
51175;DHT22;37240;50.104;20.010;2023-01-25T13:11:49;6.20;98.60
51175;DHT22;37240;50.104;20.010;2023-01-25T13:16:54;6.10;98.20
51175;DHT22;37240;50.104;20.010;2023-01-25T13:21:56;6.20;98.70
51175;DHT22;37240;50.104;20.010;2023-01-25T13:27:01;6.20;98.50
51175;DHT22;37240;50.104;20.010;2023-01-25T13:32:04;6.20;98.90
51175;DHT22;37240;50.104;20.010;2023-01-25T13:37:25;6.20;99.20
51175;DHT22;37240;50.104;20.010;2023-01-25T13:42:31;6.20;99.50
51175;DHT22;37240;50.104;20.010;2023-01-25T13:47:35;6.10;99.10
51175;DHT22;37240;50.104;20.010;2023-01-25T13:52:35;6.10;99.00
51175;DHT22;37240;50.104;20.010;2023-01-25T13:57:36;6.00;98.90
51175;DHT22;37240;50.104;20.010;2023-01-25T14:02:38;5.90;99.40
51175;DHT22;37240;50.104;20.010;2023-01-25T14:07:43;5.70;99.20
51175;DHT22;37240;50.104;20.010;2023-01-25T14:12:45;5.70;99.30
51175;DHT22;37240;50.104;20.010;2023-01-25T14:18:02;5.80;99.40
51175;DHT22;37240;50.104;20.010;2023-01-25T14:23:03;5.60;99.00
51175;DHT22;37240;50.104;20.010;2023-01-25T14:28:05;5.60;99.50
51175;DHT22;37240;50.104;20.010;2023-01-25T14:33:20;5.60;99.20
51175;DHT22;37240;50.104;20.010;2023-01-25T14:38:26;5.40;99.70
51175;DHT22;37240;50.104;20.010;2023-01-25T14:43:27;5.30;99.90
51175;DHT22;37240;50.104;20.010;2023-01-25T14:48:39;5.40;99.90
51175;DHT22;37240;50.104;20.010;2023-01-25T14:53:46;5.40;99.90
51175;DHT22;37240;50.104;20.010;2023-01-25T14:58:47;5.50;99.90
51175;DHT22;37240;50.104;20.010;2023-01-25T15:03:47;5.40;99.90
51175;DHT22;37240;50.104;20.010;2023-01-25T15:08:48;5.50;99.90
51175;DHT22;37240;50.104;20.010;2023-01-25T15:14:03;5.50;99.90
51175;DHT22;37240;50.104;20.010;2023-01-25T15:19:26;5.30;99.90
51175;DHT22;37240;50.104;20.010;2023-01-25T15:24:27;5.40;99.90
51175;DHT22;37240;50.104;20.010;2023-01-25T15:29:27;5.40;99.90
51175;DHT22;37240;50.104;20.010;2023-01-25T15:34:28;5.30;99.90
51175;DHT22;37240;50.104;20.010;2023-01-25T15:39:29;5.30;99.90
51175;DHT22;37240;50.104;20.010;2023-01-25T15:44:29;5.40;99.90
51175;DHT22;37240;50.104;20.010;2023-01-25T15:49:30;5.40;99.90
51175;DHT22;37240;50.104;20.010;2023-01-25T15:54:31;5.30;99.90
51175;DHT22;37240;50.104;20.010;2023-01-25T15:59:31;5.40;99.90
51175;DHT22;37240;50.104;20.010;2023-01-25T16:04:32;5.30;99.90
51175;DHT22;37240;50.104;20.010;2023-01-25T16:09:32;5.20;99.90
51175;DHT22;37240;50.104;20.010;2023-01-25T16:14:33;5.30;99.90
51175;DHT22;37240;50.104;20.010;2023-01-25T16:19:33;5.20;99.90
51175;DHT22;37240;50.104;20.010;2023-01-25T16:24:34;5.10;99.90
51175;DHT22;37240;50.104;20.010;2023-01-25T16:29:34;5.10;99.90
51175;DHT22;37240;50.104;20.010;2023-01-25T16:34:35;5.10;99.90
51175;DHT22;37240;50.104;20.010;2023-01-25T16:39:35;5.20;99.90
51175;DHT22;37240;50.104;20.010;2023-01-25T16:44:36;5.20;99.90
51175;DHT22;37240;50.104;20.010;2023-01-25T16:49:37;5.20;99.90
51175;DHT22;37240;50.104;20.010;2023-01-25T16:54:37;5.20;99.90
51175;DHT22;37240;50.104;20.010;2023-01-25T16:59:38;5.30;99.90
51175;DHT22;37240;50.104;20.010;2023-01-25T17:04:38;5.40;99.90
51175;DHT22;37240;50.104;20.010;2023-01-25T17:09:39;5.30;99.90
51175;DHT22;37240;50.104;20.010;2023-01-25T17:14:39;5.30;99.90
51175;DHT22;37240;50.104;20.010;2023-01-25T17:19:40;5.40;99.90
51175;DHT22;37240;50.104;20.010;2023-01-25T17:24:41;5.40;99.90
51175;DHT22;37240;50.104;20.010;2023-01-25T17:29:41;5.40;99.90
51175;DHT22;37240;50.104;20.010;2023-01-25T17:34:42;5.40;99.90
51175;DHT22;37240;50.104;20.010;2023-01-25T17:39:42;5.30;99.90
51175;DHT22;37240;50.104;20.010;2023-01-25T17:44:43;5.30;99.90
51175;DHT22;37240;50.104;20.010;2023-01-25T17:49:43;5.30;99.90
51175;DHT22;37240;50.104;20.010;2023-01-25T17:54:44;5.20;99.90
51175;DHT22;37240;50.104;20.010;2023-01-25T17:59:44;5.30;99.90
51175;DHT22;37240;50.104;20.010;2023-01-25T18:04:45;5.30;99.90
51175;DHT22;37240;50.104;20.010;2023-01-25T18:09:45;5.30;99.90
51175;DHT22;37240;50.104;20.010;2023-01-25T18:14:46;5.30;99.90
51175;DHT22;37240;50.104;20.010;2023-01-25T18:19:46;5.30;99.90
51175;DHT22;37240;50.104;20.010;2023-01-25T18:24:47;5.30;99.90
51175;DHT22;37240;50.104;20.010;2023-01-25T18:30:22;5.20;99.40
51175;DHT22;37240;50.104;20.010;2023-01-25T18:35:28;5.20;99.90
51175;DHT22;37240;50.104;20.010;2023-01-25T18:40:29;5.10;99.90
51175;DHT22;37240;50.104;20.010;2023-01-25T18:45:29;5.00;99.90
51175;DHT22;37240;50.104;20.010;2023-01-25T18:50:31;4.80;99.60
51175;DHT22;37240;50.104;20.010;2023-01-25T18:55:32;4.70;99.70
51175;DHT22;37240;50.104;20.010;2023-01-25T19:00:33;4.70;99.90
51175;DHT22;37240;50.104;20.010;2023-01-25T19:05:33;4.90;99.90
51175;DHT22;37240;50.104;20.010;2023-01-25T19:10:34;5.00;99.90
51175;DHT22;37240;50.104;20.010;2023-01-25T19:15:35;4.90;99.90
51175;DHT22;37240;50.104;20.010;2023-01-25T19:20:35;4.80;99.90
51175;DHT22;37240;50.104;20.010;2023-01-25T19:25:36;4.80;99.90
51175;DHT22;37240;50.104;20.010;2023-01-25T19:30:36;4.80;99.90
51175;DHT22;37240;50.104;20.010;2023-01-25T19:35:37;4.80;99.90
51175;DHT22;37240;50.104;20.010;2023-01-25T19:40:37;4.70;99.90
51175;DHT22;37240;50.104;20.010;2023-01-25T19:45:38;4.60;99.90
51175;DHT22;37240;50.104;20.010;2023-01-25T19:50:38;4.60;99.90
51175;DHT22;37240;50.104;20.010;2023-01-25T19:55:39;4.60;99.90
51175;DHT22;37240;50.104;20.010;2023-01-25T20:00:39;4.70;99.90
51175;DHT22;37240;50.104;20.010;2023-01-25T20:05:40;4.80;99.90
51175;DHT22;37240;50.104;20.010;2023-01-25T20:10:40;4.60;99.90
51175;DHT22;37240;50.104;20.010;2023-01-25T20:15:47;4.70;99.90
51175;DHT22;37240;50.104;20.010;2023-01-25T20:20:54;4.70;99.90
51175;DHT22;37240;50.104;20.010;2023-01-25T20:26:00;4.70;99.90
51175;DHT22;37240;50.104;20.010;2023-01-25T20:31:01;4.70;99.90
51175;DHT22;37240;50.104;20.010;2023-01-25T20:36:04;4.60;99.90
51175;DHT22;37240;50.104;20.010;2023-01-25T20:41:07;4.60;99.90
51175;DHT22;37240;50.104;20.010;2023-01-25T20:46:07;4.40;99.90
51175;DHT22;37240;50.104;20.010;2023-01-25T20:51:09;4.40;99.90
51175;DHT22;37240;50.104;20.010;2023-01-25T20:56:11;4.40;99.90
51175;DHT22;37240;50.104;20.010;2023-01-25T21:01:14;4.30;99.90
51175;DHT22;37240;50.104;20.010;2023-01-25T21:06:16;4.30;99.90
51175;DHT22;37240;50.104;20.010;2023-01-25T21:11:16;4.30;99.90
51175;DHT22;37240;50.104;20.010;2023-01-25T21:16:18;4.30;99.90
51175;DHT22;37240;50.104;20.010;2023-01-25T21:21:31;4.30;99.90
51175;DHT22;37240;50.104;20.010;2023-01-25T21:26:33;4.20;99.90
51175;DHT22;37240;50.104;20.010;2023-01-25T21:31:38;4.10;99.90
51175;DHT22;37240;50.104;20.010;2023-01-25T21:36:39;4.20;99.90
51175;DHT22;37240;50.104;20.010;2023-01-25T21:41:39;4.30;99.90
51175;DHT22;37240;50.104;20.010;2023-01-25T21:46:40;4.30;99.90
51175;DHT22;37240;50.104;20.010;2023-01-25T21:51:46;4.20;99.90
51175;DHT22;37240;50.104;20.010;2023-01-25T21:56:48;4.10;99.90
51175;DHT22;37240;50.104;20.010;2023-01-25T22:01:50;4.10;99.90
51175;DHT22;37240;50.104;20.010;2023-01-25T22:06:51;4.10;99.90
51175;DHT22;37240;50.104;20.010;2023-01-25T22:11:52;4.10;99.90
51175;DHT22;37240;50.104;20.010;2023-01-25T22:16:53;4.00;99.90
51175;DHT22;37240;50.104;20.010;2023-01-25T22:21:53;3.90;99.90
51175;DHT22;37240;50.104;20.010;2023-01-25T22:27:25;4.00;99.90
51175;DHT22;37240;50.104;20.010;2023-01-25T22:32:23;4.10;99.90
51175;DHT22;37240;50.104;20.010;2023-01-25T22:37:23;4.00;99.90
51175;DHT22;37240;50.104;20.010;2023-01-25T22:42:24;4.00;99.90
51175;DHT22;37240;50.104;20.010;2023-01-25T22:47:24;4.10;99.90
51175;DHT22;37240;50.104;20.010;2023-01-25T22:52:25;4.00;99.90
51175;DHT22;37240;50.104;20.010;2023-01-25T22:57:25;4.00;99.90
51175;DHT22;37240;50.104;20.010;2023-01-25T23:02:26;4.00;99.90
51175;DHT22;37240;50.104;20.010;2023-01-25T23:07:26;4.10;99.90
51175;DHT22;37240;50.104;20.010;2023-01-25T23:12:27;4.00;99.90
51175;DHT22;37240;50.104;20.010;2023-01-25T23:17:27;3.90;99.90
51175;DHT22;37240;50.104;20.010;2023-01-25T23:22:28;3.80;99.90
51175;DHT22;37240;50.104;20.010;2023-01-25T23:27:28;3.80;99.90
51175;DHT22;37240;50.104;20.010;2023-01-25T23:32:29;4.00;99.90
51175;DHT22;37240;50.104;20.010;2023-01-25T23:37:30;3.80;99.90
51175;DHT22;37240;50.104;20.010;2023-01-25T23:42:31;3.90;99.90
51175;DHT22;37240;50.104;20.010;2023-01-25T23:47:32;4.00;99.90
51175;DHT22;37240;50.104;20.010;2023-01-25T23:52:33;3.90;99.90
51175;DHT22;37240;50.104;20.010;2023-01-25T23:57:33;3.90;99.90
